Time;durP1;ratioP1;P1;durP2;ratioP2;P2;SDS_P1;SDS_P2;PMS_P1;PMS_P2;Temp;Humidity;BMP_temperature;BMP_pressure;BME280_temperature;BME280_humidity;BME280_pressure;Samples;Min_cycle;Max_cycle;Signal;HPM_P1;HPM_P2
2024/01/24 00:00:05;;;;;;;7.93;1.67;;;;;7.00;94800.00;;;;7404901;19;20758;-83
2024/01/24 00:02:39;;;;;;;6.57;1.97;;;;;7.20;94786.00;;;;7405260;19;20503;-84
2024/01/24 00:05:16;;;;;;;7.77;1.77;;;;;7.20;94789.00;;;;7407580;19;20132;-84
2024/01/24 00:07:44;;;;;;;6.60;1.77;;;;;7.20;94778.00;;;;7403075;19;20157;-84
2024/01/24 00:10:18;;;;;;;7.07;1.30;;;;;7.20;94778.00;;;;7404878;19;20135;-84
2024/01/24 00:12:48;;;;;;;8.60;1.60;;;;;7.30;94775.00;;;;7405633;19;20592;-83
2024/01/24 00:15:23;;;;;;;9.50;1.90;;;;;7.30;94756.00;;;;7403265;19;20140;-83
2024/01/24 00:17:51;;;;;;;4.13;1.47;;;;;7.30;94739.00;;;;7406657;19;20617;-83
2024/01/24 00:20:25;;;;;;;8.00;2.13;;;;;7.60;94736.00;;;;7406745;19;20151;-83
2024/01/24 00:23:01;;;;;;;4.37;1.40;;;;;7.50;94743.00;;;;7406789;19;20596;-83
2024/01/24 00:25:35;;;;;;;5.03;1.10;;;;;7.50;94740.00;;;;7404026;19;20184;-84
2024/01/24 00:28:04;;;;;;;3.20;1.20;;;;;7.50;94727.00;;;;7404982;19;20176;-83
2024/01/24 00:30:39;;;;;;;6.53;1.93;;;;;7.60;94707.00;;;;7404932;19;20584;-84
2024/01/24 00:33:14;;;;;;;4.70;1.60;;;;;7.60;94714.00;;;;7403252;19;20137;-83
2024/01/24 00:35:42;;;;;;;7.43;1.80;;;;;7.50;94714.00;;;;7406142;19;20137;-85
2024/01/24 00:38:17;;;;;;;3.57;1.40;;;;;7.50;94716.00;;;;7405524;19;20148;-84
2024/01/24 00:40:51;;;;;;;5.77;1.47;;;;;7.60;94732.00;;;;7407059;19;20133;-83
2024/01/24 00:43:25;;;;;;;3.43;1.53;;;;;7.50;94739.00;;;;7403059;19;20176;-85
2024/01/24 00:45:53;;;;;;;5.73;1.50;;;;;7.60;94736.00;;;;7404626;19;20142;-83
2024/01/24 00:48:30;;;;;;;8.93;2.10;;;;;7.60;94729.00;;;;7409444;19;20157;-83
2024/01/24 00:51:11;;;;;;;5.23;1.60;;;;;7.50;94722.00;;;;7408354;19;20156;-82
2024/01/24 00:53:41;;;;;;;6.73;1.50;;;;;7.60;94712.00;;;;7411573;19;20149;-82
2024/01/24 00:56:16;;;;;;;6.87;1.53;;;;;7.70;94717.00;;;;7412014;19;20125;-84
2024/01/24 00:58:43;;;;;;;7.87;1.67;;;;;7.80;94718.00;;;;7412370;19;20129;-85
2024/01/24 01:01:19;;;;;;;4.37;1.60;;;;;7.90;94709.00;;;;7411190;19;20132;-85
2024/01/24 01:03:53;;;;;;;7.87;2.00;;;;;7.90;94677.00;;;;7411237;19;20525;-84
2024/01/24 01:06:27;;;;;;;6.10;1.33;;;;;8.00;94708.00;;;;7408279;19;20201;-84
2024/01/24 01:08:55;;;;;;;7.97;2.27;;;;;8.10;94704.00;;;;7409958;19;20465;-85
2024/01/24 01:11:22;;;;;;;3.93;1.43;;;;;8.00;94706.00;;;;7405477;19;20149;-82
2024/01/24 01:13:57;;;;;;;7.87;1.87;;;;;8.00;94689.00;;;;7404769;19;20619;-80
2024/01/24 01:16:31;;;;;;;8.17;1.50;;;;;8.00;94689.00;;;;7406950;19;20502;-82
2024/01/24 01:18:59;;;;;;;5.03;1.30;;;;;8.10;94676.00;;;;7403900;19;20217;-80
2024/01/24 01:21:27;;;;;;;7.57;1.43;;;;;8.00;94668.00;;;;7403425;19;20145;-80
2024/01/24 01:24:01;;;;;;;5.80;1.77;;;;;8.20;94684.00;;;;7403821;19;20191;-81
2024/01/24 01:26:35;;;;;;;4.60;1.33;;;;;8.20;94679.00;;;;7403183;19;20137;-79
2024/01/24 01:29:09;;;;;;;2.87;1.27;;;;;8.30;94679.00;;;;7404685;19;20200;-79
2024/01/24 01:31:37;;;;;;;6.50;1.43;;;;;8.30;94680.00;;;;7403251;19;20145;-80
2024/01/24 01:34:11;;;;;;;5.80;1.60;;;;;8.20;94659.00;;;;7404127;19;20148;-79
2024/01/24 01:36:45;;;;;;;4.05;1.40;;;;;8.20;94656.00;;;;7404220;19;20153;-81
2024/01/24 01:39:19;;;;;;;4.80;1.40;;;;;8.20;94666.00;;;;7405011;19;20157;-80
2024/01/24 01:41:53;;;;;;;2.87;1.40;;;;;8.20;94662.00;;;;7401392;19;20141;-80
2024/01/24 01:44:27;;;;;;;7.28;1.63;;;;;8.30;94660.00;;;;7401639;19;20183;-78
2024/01/24 01:47:01;;;;;;;3.47;1.30;;;;;8.30;94668.00;;;;7404134;19;20146;-80
2024/01/24 01:49:28;;;;;;;6.13;1.53;;;;;8.30;94675.00;;;;7403799;19;20144;-80
2024/01/24 01:52:10;;;;;;;5.60;1.30;;;;;8.40;94692.00;;;;7404364;19;20566;-79
2024/01/24 01:54:46;;;;;;;5.27;1.63;;;;;8.40;94681.00;;;;7404475;19;20476;-79
2024/01/24 01:57:14;;;;;;;4.40;1.52;;;;;8.40;94681.00;;;;7404452;19;20185;-79
2024/01/24 01:59:48;;;;;;;5.65;1.27;;;;;8.50;94680.00;;;;7401327;19;20164;-79
2024/01/24 02:02:16;;;;;;;5.60;1.70;;;;;8.50;94681.00;;;;7402119;19;20489;-81
2024/01/24 02:04:57;;;;;;;6.17;1.67;;;;;8.50;94685.00;;;;7403412;19;20158;-78
2024/01/24 02:07:25;;;;;;;6.57;1.53;;;;;8.40;94663.00;;;;7402849;19;20141;-80
2024/01/24 02:10:00;;;;;;;3.53;1.30;;;;;8.40;94654.00;;;;7404468;19;20628;-79
2024/01/24 02:12:28;;;;;;;7.38;1.60;;;;;8.40;94654.00;;;;7403682;19;20133;-80
2024/01/24 02:15:02;;;;;;;5.57;1.30;;;;;8.40;94658.00;;;;7404688;19;20149;-79
2024/01/24 02:17:30;;;;;;;2.80;1.20;;;;;8.40;94652.00;;;;7402938;19;20136;-78
2024/01/24 02:20:09;;;;;;;5.03;1.20;;;;;8.40;94644.00;;;;7403256;19;20145;-78
2024/01/24 02:22:38;;;;;;;4.20;1.67;;;;;8.30;94652.00;;;;7400201;19;20163;-78
2024/01/24 02:25:12;;;;;;;4.43;1.77;;;;;8.50;94636.00;;;;7402692;19;20132;-78
2024/01/24 02:27:40;;;;;;;6.10;1.57;;;;;8.40;94634.00;;;;7402526;19;20617;-78
2024/01/24 02:30:09;;;;;;;5.20;1.37;;;;;8.40;94635.00;;;;7402620;19;20161;-78
2024/01/24 02:32:44;;;;;;;3.83;1.37;;;;;8.40;94631.00;;;;7403107;19;20145;-77
2024/01/24 02:35:12;;;;;;;4.43;1.83;;;;;8.40;94635.00;;;;7402262;19;20542;-76
2024/01/24 02:37:46;;;;;;;3.50;1.30;;;;;8.50;94647.00;;;;7401620;19;20144;-81
2024/01/24 02:40:13;;;;;;;5.37;1.20;;;;;8.60;94635.00;;;;7401271;19;20128;-81
2024/01/24 02:42:48;;;;;;;5.83;1.60;;;;;8.60;94649.00;;;;7400601;19;20206;-77
2024/01/24 02:45:15;;;;;;;5.88;1.38;;;;;8.50;94641.00;;;;7402151;19;20540;-78
2024/01/24 02:47:50;;;;;;;2.72;1.30;;;;;8.60;94638.00;;;;7401496;19;20628;-81
2024/01/24 02:50:24;;;;;;;3.40;1.10;;;;;8.50;94636.00;;;;7401508;19;20648;-79
2024/01/24 02:52:59;;;;;;;3.70;1.40;;;;;8.40;94644.00;;;;7401505;19;20155;-78
2024/01/24 02:55:29;;;;;;;4.53;1.53;;;;;8.60;94639.00;;;;7401802;19;20165;-78
2024/01/24 02:58:03;;;;;;;4.30;1.57;;;;;8.70;94634.00;;;;7401061;19;20230;-77
2024/01/24 03:00:31;;;;;;;3.73;1.40;;;;;8.70;94637.00;;;;7401250;19;20145;-80
2024/01/24 03:02:58;;;;;;;3.20;1.40;;;;;8.60;94629.00;;;;7400838;19;20146;-80
2024/01/24 03:05:33;;;;;;;3.53;1.30;;;;;9.00;94640.00;;;;7400963;19;20698;-79
2024/01/24 03:08:02;;;;;;;3.53;1.43;;;;;8.90;94636.00;;;;7402480;19;20129;-77
2024/01/24 03:10:36;;;;;;;5.20;1.70;;;;;9.00;94635.00;;;;7400449;19;20159;-79
2024/01/24 03:13:04;;;;;;;5.07;1.50;;;;;9.20;94645.00;;;;7400754;19;20501;-78
2024/01/24 03:15:31;;;;;;;5.32;1.50;;;;;9.10;94649.00;;;;7400979;19;20490;-78
2024/01/24 03:18:07;;;;;;;4.40;1.70;;;;;9.20;94645.00;;;;7400223;19;20159;-80
2024/01/24 03:20:42;;;;;;;2.13;0.98;;;;;9.30;94650.00;;;;7400515;19;20132;-78
2024/01/24 03:23:12;;;;;;;3.50;1.23;;;;;9.30;94645.00;;;;7398353;19;20481;-76
2024/01/24 03:25:46;;;;;;;2.28;1.35;;;;;9.40;94639.00;;;;7399729;19;20170;-77
2024/01/24 03:28:13;;;;;;;2.22;1.65;;;;;9.40;94650.00;;;;7400000;19;20125;-79
2024/01/24 03:30:41;;;;;;;5.32;1.30;;;;;9.40;94645.00;;;;7401156;19;20137;-78
2024/01/24 03:33:15;;;;;;;4.85;1.63;;;;;9.50;94661.00;;;;7402002;19;20196;-80
2024/01/24 03:35:42;;;;;;;3.40;1.58;;;;;9.60;94664.00;;;;7399875;19;20139;-77
2024/01/24 03:38:18;;;;;;;3.60;1.50;;;;;9.50;94650.00;;;;7399397;19;20156;-81
2024/01/24 03:40:45;;;;;;;4.78;1.42;;;;;9.50;94639.00;;;;7400186;19;20613;-79
2024/01/24 03:43:20;;;;;;;3.08;1.33;;;;;9.70;94649.00;;;;7399150;19;20215;-79
2024/01/24 03:45:47;;;;;;;4.60;1.23;;;;;9.70;94636.00;;;;7399989;19;20141;-77
2024/01/24 03:48:22;;;;;;;2.58;1.15;;;;;9.50;94635.00;;;;7400878;19;20166;-78
2024/01/24 03:50:56;;;;;;;3.22;1.40;;;;;9.70;94638.00;;;;7397678;19;20185;-80
2024/01/24 03:53:31;;;;;;;3.88;1.25;;;;;9.80;94640.00;;;;7400662;19;20612;-80
2024/01/24 03:55:59;;;;;;;3.17;1.35;;;;;9.80;94663.00;;;;7400167;19;20501;-77
2024/01/24 03:58:33;;;;;;;3.22;1.35;;;;;9.80;94658.00;;;;7400056;19;20173;-78
2024/01/24 04:01:08;;;;;;;3.97;1.33;;;;;9.70;94673.00;;;;7398941;19;20136;-78
2024/01/24 04:03:36;;;;;;;4.05;1.23;;;;;9.70;94633.00;;;;7398510;19;20155;-78
2024/01/24 04:06:10;;;;;;;4.15;1.38;;;;;9.80;94657.00;;;;7398868;19;20180;-78
2024/01/24 04:08:38;;;;;;;2.75;1.60;;;;;9.80;94693.00;;;;7399679;19;20497;-77
2024/01/24 04:11:12;;;;;;;4.07;1.52;;;;;9.80;94699.00;;;;7399660;19;20141;-80
2024/01/24 04:13:56;;;;;;;2.67;1.30;;;;;9.80;94693.00;;;;7398672;19;20152;-82
2024/01/24 04:16:30;;;;;;;4.13;1.30;;;;;9.90;94695.00;;;;7399402;19;20151;-80
2024/01/24 04:19:05;;;;;;;3.72;1.42;;;;;9.90;94675.00;;;;7399785;19;20157;-81
2024/01/24 04:21:33;;;;;;;4.20;1.20;;;;;9.80;94703.00;;;;7396648;19;20137;-79
2024/01/24 04:24:07;;;;;;;2.85;1.55;;;;;9.80;94708.00;;;;7397732;19;20148;-76
2024/01/24 04:26:35;;;;;;;3.60;1.67;;;;;9.90;94712.00;;;;7399098;19;20219;-77
2024/01/24 04:29:09;;;;;;;4.05;1.50;;;;;9.70;94721.00;;;;7398636;19;20143;-81
2024/01/24 04:31:41;;;;;;;2.42;1.23;;;;;9.60;94711.00;;;;7399046;19;20151;-78
2024/01/24 04:34:19;;;;;;;3.35;1.10;;;;;9.70;94717.00;;;;7398003;19;20129;-80
2024/01/24 04:36:46;;;;;;;3.72;1.40;;;;;9.80;94717.00;;;;7398701;19;20141;-81
2024/01/24 04:39:21;;;;;;;6.18;1.50;;;;;9.70;94738.00;;;;7399611;19;20161;-84
2024/01/24 04:41:49;;;;;;;3.60;1.33;;;;;9.70;94733.00;;;;7402199;19;20150;-82
2024/01/24 04:44:38;;;;;;;3.83;1.63;;;;;9.50;94732.00;;;;7399792;19;20612;-83
2024/01/24 04:47:14;;;;;;;3.67;1.35;;;;;9.60;94733.00;;;;7400865;19;20131;-84
2024/01/24 04:49:42;;;;;;;3.00;1.40;;;;;9.80;94734.00;;;;7400095;19;20139;-83
2024/01/24 04:52:23;;;;;;;2.58;1.35;;;;;9.70;94724.00;;;;7399441;19;20148;-82
2024/01/24 04:54:52;;;;;;;1.98;1.33;;;;;9.80;94709.00;;;;7400576;19;20141;-83
2024/01/24 04:57:27;;;;;;;4.47;1.63;;;;;9.70;94661.00;;;;7400397;19;20153;-84
2024/01/24 05:00:05;;;;;;;2.85;1.25;;;;;9.80;94729.00;;;;7401414;19;20145;-81
2024/01/24 05:02:41;;;;;;;2.33;1.52;;;;;9.80;94721.00;;;;7399138;19;20513;-82
2024/01/24 05:05:10;;;;;;;3.38;1.35;;;;;9.70;94723.00;;;;7398291;19;20141;-81
2024/01/24 05:07:50;;;;;;;5.72;1.60;;;;;9.60;94693.00;;;;7399724;19;20219;-81
2024/01/24 05:10:18;;;;;;;4.18;1.42;;;;;9.70;94701.00;;;;7400649;19;20142;-82
2024/01/24 05:12:53;;;;;;;3.30;1.20;;;;;9.80;94689.00;;;;7399914;19;20152;-83
2024/01/24 05:15:20;;;;;;;2.65;1.20;;;;;9.80;94717.00;;;;7400923;19;20474;-83
2024/01/24 05:17:55;;;;;;;3.17;1.35;;;;;9.80;94708.00;;;;7400238;19;20136;-81
2024/01/24 05:20:23;;;;;;;2.30;1.15;;;;;9.70;94720.00;;;;7399456;19;20125;-82
2024/01/24 05:22:57;;;;;;;1.90;1.10;;;;;9.80;94735.00;;;;7398289;19;20140;-82
2024/01/24 05:25:24;;;;;;;2.42;1.05;;;;;9.90;94732.00;;;;7402095;19;20153;-82
2024/01/24 05:27:59;;;;;;;2.40;0.80;;;;;9.70;94691.00;;;;7400000;19;20500;-83
2024/01/24 05:30:27;;;;;;;2.55;0.98;;;;;9.80;94693.00;;;;7400282;19;20601;-84
2024/01/24 05:33:04;;;;;;;2.05;0.70;;;;;9.80;94678.00;;;;7403073;19;20139;-81
2024/01/24 05:35:31;;;;;;;1.60;0.82;;;;;9.90;94666.00;;;;7408987;19;20161;-82
2024/01/24 05:38:06;;;;;;;1.10;0.70;;;;;9.70;94680.00;;;;7407902;19;20163;-82
2024/01/24 05:40:40;;;;;;;0.80;0.70;;;;;9.90;94695.00;;;;7405572;19;20180;-83
2024/01/24 05:43:14;;;;;;;0.75;0.60;;;;;9.90;94683.00;;;;7404080;19;20180;-82
2024/01/24 05:45:41;;;;;;;1.58;0.80;;;;;10.00;94689.00;;;;7405696;19;20151;-84
2024/01/24 05:48:26;;;;;;;2.47;0.95;;;;;10.10;94694.00;;;;7403577;19;20220;-83
2024/01/24 05:51:13;;;;;;;1.05;0.70;;;;;10.20;94684.00;;;;7402502;19;20216;-76
2024/01/24 05:53:48;;;;;;;1.70;0.60;;;;;10.20;94706.00;;;;7404550;19;20129;-77
2024/01/24 05:56:22;;;;;;;0.47;0.40;;;;;10.20;94656.00;;;;7395006;19;20125;-78
2024/01/24 05:58:49;;;;;;;1.10;0.70;;;;;10.20;94646.00;;;;7394874;19;20136;-77
2024/01/24 06:01:24;;;;;;;2.53;0.60;;;;;10.20;94639.00;;;;7393906;19;20171;-76
2024/01/24 06:03:52;;;;;;;0.35;0.35;;;;;10.20;94630.00;;;;7394075;19;20148;-79
2024/01/24 06:06:26;;;;;;;0.90;0.47;;;;;10.20;94638.00;;;;7394054;19;20187;-78
2024/01/24 06:08:55;;;;;;;0.52;0.50;;;;;10.10;94641.00;;;;7393819;19;20153;-78
2024/01/24 06:11:29;;;;;;;0.63;0.32;;;;;10.20;94654.00;;;;7394039;19;20521;-78
2024/01/24 06:13:57;;;;;;;0.98;0.47;;;;;10.30;94665.00;;;;7393568;19;20136;-79
2024/01/24 06:16:31;;;;;;;1.13;0.45;;;;;10.40;94674.00;;;;7395051;19;20485;-77
2024/01/24 06:18:58;;;;;;;0.38;0.38;;;;;10.40;94656.00;;;;7394910;19;20597;-79
2024/01/24 06:21:33;;;;;;;0.22;0.22;;;;;10.40;94674.00;;;;7393400;19;20627;-77
2024/01/24 06:24:09;;;;;;;0.52;0.47;;;;;10.50;94678.00;;;;7392834;19;20227;-77
2024/01/24 06:26:47;;;;;;;1.38;0.40;;;;;10.50;94678.00;;;;7392027;19;20149;-77
2024/01/24 06:29:15;;;;;;;0.40;0.40;;;;;10.60;94653.00;;;;7394026;19;20668;-79
2024/01/24 06:32:10;;;;;;;0.70;0.50;;;;;10.60;94674.00;;;;7394432;19;20141;-77
2024/01/24 06:34:38;;;;;;;2.20;0.47;;;;;10.50;94669.00;;;;7392104;19;20150;-75
2024/01/24 06:37:12;;;;;;;0.65;0.20;;;;;10.30;94677.00;;;;7394122;19;20596;-78
2024/01/24 06:39:40;;;;;;;2.00;0.43;;;;;10.20;94670.00;;;;7393918;19;20140;-77
2024/01/24 06:42:14;;;;;;;0.95;0.40;;;;;10.10;94666.00;;;;7393017;19;20608;-77
2024/01/24 06:44:49;;;;;;;0.80;0.38;;;;;10.10;94662.00;;;;7387304;19;20628;-78
2024/01/24 06:47:23;;;;;;;0.95;0.40;;;;;10.00;94654.00;;;;7392625;19;20153;-77
2024/01/24 06:49:57;;;;;;;0.20;0.20;;;;;9.80;94654.00;;;;7392175;19;20135;-76
2024/01/24 06:52:37;;;;;;;0.90;0.50;;;;;9.80;94676.00;;;;7391299;19;20140;-76
2024/01/24 06:55:06;;;;;;;0.60;0.40;;;;;9.70;94680.00;;;;7391992;19;20219;-75
2024/01/24 06:57:41;;;;;;;2.95;0.60;;;;;9.30;94677.00;;;;7391385;19;20154;-77
2024/01/24 07:00:09;;;;;;;0.30;0.20;;;;;9.50;94704.00;;;;7391313;19;20216;-77
2024/01/24 07:02:44;;;;;;;1.13;0.50;;;;;9.30;94683.00;;;;7391180;19;20211;-75
2024/01/24 07:05:18;;;;;;;0.20;0.20;;;;;9.30;94684.00;;;;7390942;19;20181;-78
2024/01/24 07:07:52;;;;;;;1.10;0.43;;;;;9.30;94683.00;;;;7391658;19;20144;-77
2024/01/24 07:10:20;;;;;;;0.35;0.20;;;;;9.30;94667.00;;;;7392896;19;20125;-77
2024/01/24 07:12:49;;;;;;;0.65;0.30;;;;;9.10;94667.00;;;;7392511;19;20152;-76
2024/01/24 07:15:26;;;;;;;0.80;0.40;;;;;9.10;94659.00;;;;7391669;19;20632;-78
2024/01/24 07:17:55;;;;;;;0.73;0.55;;;;;9.30;94650.00;;;;7391223;19;20145;-77
2024/01/24 07:20:30;;;;;;;0.93;0.50;;;;;9.20;94669.00;;;;7393127;19;20612;-75
2024/01/24 07:22:57;;;;;;;0.30;0.30;;;;;9.20;94654.00;;;;7396479;19;20148;-78
2024/01/24 07:25:32;;;;;;;0.40;0.30;;;;;9.10;94659.00;;;;7397818;19;20612;-76
2024/01/24 07:27:59;;;;;;;1.20;0.20;;;;;9.20;94665.00;;;;7398956;19;20148;-76
2024/01/24 07:30:34;;;;;;;2.05;0.32;;;;;9.20;94680.00;;;;7399436;19;20138;-76
2024/01/24 07:33:03;;;;;;;0.32;0.32;;;;;9.00;94681.00;;;;7398531;19;20173;-76
2024/01/24 07:35:38;;;;;;;0.73;0.17;;;;;9.10;94688.00;;;;7399979;19;20132;-74
2024/01/24 07:38:12;;;;;;;0.10;0.10;;;;;9.00;94667.00;;;;7399084;19;20589;-76
2024/01/24 07:40:39;;;;;;;0.35;0.20;;;;;9.10;94671.00;;;;7400287;19;20139;-77
2024/01/24 07:43:15;;;;;;;0.50;0.28;;;;;9.30;94668.00;;;;7398195;19;20182;-76
2024/01/24 07:45:43;;;;;;;1.13;0.20;;;;;9.30;94672.00;;;;7399026;19;20152;-78
2024/01/24 07:48:18;;;;;;;1.38;0.10;;;;;9.30;94674.00;;;;7398588;19;20140;-77
2024/01/24 07:50:58;;;;;;;0.25;0.22;;;;;9.40;94678.00;;;;7399848;19;20149;-78
2024/01/24 07:53:42;;;;;;;0.75;0.30;;;;;9.30;94673.00;;;;7400298;19;20144;-75
2024/01/24 07:56:13;;;;;;;0.00;0.00;;;;;9.40;94698.00;;;;7397699;19;20137;-76
2024/01/24 07:58:53;;;;;;;0.20;0.10;;;;;9.30;94654.00;;;;7398342;19;20192;-75
2024/01/24 08:01:28;;;;;;;0.20;0.10;;;;;9.40;94693.00;;;;7398834;19;20151;-76
2024/01/24 08:04:03;;;;;;;0.17;0.17;;;;;9.50;94683.00;;;;7397226;19;20132;-75
2024/01/24 08:06:39;;;;;;;0.55;0.20;;;;;9.40;94667.00;;;;7398683;19;20148;-77
2024/01/24 08:09:14;;;;;;;0.10;0.10;;;;;9.30;94675.00;;;;7398282;19;20493;-75
2024/01/24 08:11:43;;;;;;;1.02;0.32;;;;;9.40;94671.00;;;;7398455;19;20168;-74
2024/01/24 08:14:18;;;;;;;0.90;0.20;;;;;9.50;94696.00;;;;7397836;19;20139;-74
2024/01/24 08:17:03;;;;;;;1.70;0.28;;;;;9.50;94700.00;;;;7398080;19;20640;-73
2024/01/24 08:19:39;;;;;;;0.10;0.10;;;;;9.30;94684.00;;;;7398946;19;20140;-76
2024/01/24 08:22:14;;;;;;;0.40;0.40;;;;;9.60;94696.00;;;;7398312;19;20161;-75
2024/01/24 08:24:48;;;;;;;0.10;0.10;;;;;9.30;94697.00;;;;7397232;19;20135;-75
2024/01/24 08:27:23;;;;;;;0.35;0.20;;;;;9.30;94698.00;;;;7397053;19;20510;-76
2024/01/24 08:29:59;;;;;;;0.10;0.10;;;;;9.40;94692.00;;;;7397574;19;20164;-74
2024/01/24 08:32:33;;;;;;;0.30;0.30;;;;;9.40;94696.00;;;;7395431;19;20128;-75
2024/01/24 08:35:10;;;;;;;0.38;0.25;;;;;9.50;94713.00;;;;7395157;19;20147;-75
2024/01/24 08:37:45;;;;;;;0.08;0.03;;;;;9.40;94691.00;;;;7395415;19;20644;-74
2024/01/24 08:40:13;;;;;;;0.20;0.20;;;;;9.30;94705.00;;;;7396699;19;20161;-74
2024/01/24 08:42:47;;;;;;;0.22;0.22;;;;;9.50;94698.00;;;;7398368;19;20134;-76
2024/01/24 08:45:29;;;;;;;0.93;0.15;;;;;9.40;94703.00;;;;7397637;19;20143;-75
2024/01/24 08:47:57;;;;;;;0.10;0.10;;;;;9.50;94697.00;;;;7397405;19;20631;-73
2024/01/24 08:50:44;;;;;;;0.20;0.20;;;;;9.50;94704.00;;;;7397686;19;20146;-75
2024/01/24 08:53:19;;;;;;;0.10;0.10;;;;;9.40;94693.00;;;;7396021;19;20144;-74
2024/01/24 08:55:54;;;;;;;0.30;0.30;;;;;9.30;94717.00;;;;7397155;19;20144;-75
2024/01/24 08:58:22;;;;;;;0.10;0.05;;;;;9.50;94713.00;;;;7396503;19;20214;-75
2024/01/24 09:00:51;;;;;;;0.28;0.25;;;;;9.40;94722.00;;;;7396140;19;20141;-75
2024/01/24 09:03:25;;;;;;;0.00;0.00;;;;;9.50;94714.00;;;;7394743;19;20174;-77
2024/01/24 09:05:59;;;;;;;0.28;0.10;;;;;9.60;94722.00;;;;7396271;19;20139;-76
2024/01/24 09:08:34;;;;;;;0.10;0.10;;;;;9.50;94736.00;;;;7399181;19;20208;-76
2024/01/24 09:11:02;;;;;;;0.45;0.10;;;;;9.60;94741.00;;;;7402522;19;20136;-76
2024/01/24 09:13:36;;;;;;;0.40;0.10;;;;;9.50;94744.00;;;;7404164;19;20125;-75
2024/01/24 09:16:04;;;;;;;0.03;0.03;;;;;9.60;94749.00;;;;7404471;19;20125;-75
2024/01/24 09:18:45;;;;;;;0.40;0.13;;;;;9.40;94760.00;;;;7400643;19;20129;-77
2024/01/24 09:21:20;;;;;;;1.13;0.22;;;;;9.50;94769.00;;;;7397273;19;20163;-78
2024/01/24 09:23:54;;;;;;;0.20;0.20;;;;;9.60;94771.00;;;;7396668;19;20152;-76
2024/01/24 09:26:22;;;;;;;0.10;0.10;;;;;9.50;94766.00;;;;7398853;19;20171;-79
2024/01/24 09:28:56;;;;;;;0.10;0.10;;;;;9.60;94756.00;;;;7398074;19;20477;-77
2024/01/24 09:31:24;;;;;;;0.17;0.10;;;;;9.70;94745.00;;;;7396790;19;20508;-76
2024/01/24 09:33:58;;;;;;;0.38;0.10;;;;;9.90;94752.00;;;;7397899;19;20588;-78
2024/01/24 09:36:32;;;;;;;0.20;0.20;;;;;9.90;94743.00;;;;7398409;19;20156;-77
2024/01/24 09:39:07;;;;;;;0.30;0.13;;;;;10.10;94737.00;;;;7397787;19;20591;-76
2024/01/24 09:41:40;;;;;;;0.10;0.10;;;;;10.10;94716.00;;;;7398433;19;20460;-76
2024/01/24 09:44:17;;;;;;;0.20;0.10;;;;;10.30;94745.00;;;;7394521;19;20168;-77
2024/01/24 09:46:53;;;;;;;0.10;0.10;;;;;10.50;94724.00;;;;7398694;19;20592;-78
2024/01/24 09:49:21;;;;;;;0.20;0.20;;;;;10.20;94716.00;;;;7397974;19;20121;-76
2024/01/24 09:52:03;;;;;;;0.25;0.15;;;;;10.20;94736.00;;;;7395142;19;20252;-77
2024/01/24 09:54:32;;;;;;;0.10;0.10;;;;;10.10;94752.00;;;;7395582;19;20140;-78
2024/01/24 09:57:08;;;;;;;0.10;0.00;;;;;10.10;94744.00;;;;7396537;19;20133;-79
2024/01/24 09:59:36;;;;;;;0.30;0.10;;;;;9.90;94755.00;;;;7399196;19;20482;-81
2024/01/24 10:02:11;;;;;;;1.48;0.10;;;;;9.90;94764.00;;;;7395411;19;20145;-78
2024/01/24 10:04:39;;;;;;;0.20;0.00;;;;;10.30;94762.00;;;;7397129;19;20145;-80
2024/01/24 10:07:11;;;;;;;1.52;0.15;;;;;10.20;94742.00;;;;7397534;19;20200;-80
2024/01/24 10:09:56;;;;;;;1.55;0.10;;;;;10.60;94755.00;;;;7398104;19;20144;-79
2024/01/24 10:12:31;;;;;;;0.10;0.10;;;;;10.60;94743.00;;;;7396258;19;20136;-82
2024/01/24 10:15:06;;;;;;;0.08;0.08;;;;;10.60;94737.00;;;;7396256;19;20148;-78
2024/01/24 10:17:34;;;;;;;0.20;0.10;;;;;10.50;94727.00;;;;7397547;19;20149;-80
2024/01/24 10:20:11;;;;;;;0.22;0.17;;;;;10.40;94706.00;;;;7393234;19;20594;-80
2024/01/24 10:22:43;;;;;;;0.00;0.00;;;;;10.80;94715.00;;;;7395976;19;20137;-78
2024/01/24 10:25:17;;;;;;;0.20;0.10;;;;;10.30;94728.00;;;;7394230;19;20188;-78
2024/01/24 10:27:45;;;;;;;0.10;0.10;;;;;10.50;94767.00;;;;7398955;19;20148;-79
2024/01/24 10:30:22;;;;;;;0.00;0.00;;;;;10.50;94771.00;;;;7396596;19;20165;-79
2024/01/24 10:32:50;;;;;;;0.10;0.10;;;;;10.50;94782.00;;;;7397358;19;20488;-80
2024/01/24 10:35:18;;;;;;;0.10;0.10;;;;;10.40;94779.00;;;;7399163;19;20162;-79
2024/01/24 10:37:53;;;;;;;0.10;0.10;;;;;10.30;94787.00;;;;7399406;19;20176;-81
2024/01/24 10:40:28;;;;;;;0.08;0.08;;;;;10.40;94774.00;;;;7398671;19;20147;-79
2024/01/24 10:43:05;;;;;;;0.00;0.00;;;;;10.20;94786.00;;;;7396292;19;20181;-81
2024/01/24 10:45:46;;;;;;;0.17;0.00;;;;;10.00;94801.00;;;;7394559;19;20133;-79
2024/01/24 10:48:16;;;;;;;0.75;0.30;;;;;9.90;94800.00;;;;7396472;19;20148;-78
2024/01/24 10:50:51;;;;;;;0.00;0.00;;;;;9.80;94788.00;;;;7396217;19;20132;-80
2024/01/24 10:53:35;;;;;;;0.00;0.00;;;;;9.70;94796.00;;;;7396347;19;20144;-84
2024/01/24 10:56:13;;;;;;;0.15;0.03;;;;;9.80;94789.00;;;;7400290;19;20539;-82
2024/01/24 10:58:49;;;;;;;0.10;0.00;;;;;9.70;94774.00;;;;7399121;19;20200;-79
2024/01/24 11:01:24;;;;;;;0.45;0.10;;;;;9.90;94775.00;;;;7400414;19;20485;-81
2024/01/24 11:04:00;;;;;;;0.00;0.00;;;;;10.10;94780.00;;;;7400236;19;20166;-82
2024/01/24 11:06:51;;;;;;;0.30;0.10;;;;;10.20;94785.00;;;;7400574;19;20156;-81
2024/01/24 11:09:24;;;;;;;0.00;0.00;;;;;10.00;94797.00;;;;7400574;19;20212;-81
2024/01/24 11:11:59;;;;;;;0.00;0.00;;;;;10.10;94799.00;;;;7399639;19;20168;-83
2024/01/24 11:14:33;;;;;;;0.10;0.10;;;;;10.10;94784.00;;;;7399735;19;20213;-83
2024/01/24 11:17:07;;;;;;;0.50;0.20;;;;;10.00;94782.00;;;;7401287;19;20145;-82
2024/01/24 11:19:42;;;;;;;0.30;0.20;;;;;10.30;94783.00;;;;7398628;19;20620;-81
2024/01/24 11:22:22;;;;;;;0.52;0.10;;;;;10.00;94761.00;;;;7399241;19;20141;-79
2024/01/24 11:24:59;;;;;;;0.00;0.00;;;;;10.20;94779.00;;;;7399647;19;20596;-82
2024/01/24 11:27:34;;;;;;;0.00;0.00;;;;;10.30;94782.00;;;;7401573;19;20224;-82
2024/01/24 11:30:12;;;;;;;0.55;0.20;;;;;9.80;94797.00;;;;7398951;19;20137;-81
2024/01/24 11:32:47;;;;;;;0.10;0.10;;;;;9.50;94776.00;;;;7398466;19;20153;-80
2024/01/24 11:35:37;;;;;;;1.55;0.30;;;;;9.30;94794.00;;;;7398163;19;20152;-82
2024/01/24 11:38:24;;;;;;;1.08;0.52;;;;;9.50;94799.00;;;;7399447;19;20511;-82
2024/01/24 11:41:22;;;;;;;1.95;0.52;;;;;9.70;94779.00;;;;7398711;19;20597;-81
2024/01/24 11:43:50;;;;;;;2.75;0.60;;;;;9.90;94773.00;;;;7396789;19;20564;-82
2024/01/24 11:46:25;;;;;;;1.25;0.70;;;;;9.60;94792.00;;;;7396033;19;20220;-79
2024/01/24 11:49:04;;;;;;;2.05;0.43;;;;;9.60;94775.00;;;;7393611;19;20124;-81
2024/01/24 11:51:44;;;;;;;1.90;0.40;;;;;9.20;94784.00;;;;7391783;19;20175;-86
2024/01/24 11:54:20;;;;;;;1.98;0.65;;;;;9.40;94796.00;;;;7392780;19;20137;-81
2024/01/24 11:56:54;;;;;;;1.83;0.57;;;;;9.20;94783.00;;;;7392563;19;20165;-79
2024/01/24 11:59:22;;;;;;;0.40;0.30;;;;;9.20;94788.00;;;;7392257;19;20145;-82
2024/01/24 12:01:50;;;;;;;0.77;0.40;;;;;8.70;94796.00;;;;7392784;19;20163;-80
2024/01/24 12:04:24;;;;;;;0.98;0.45;;;;;9.00;94811.00;;;;7393554;19;20148;-84
2024/01/24 12:07:02;;;;;;;0.88;0.43;;;;;9.10;94774.00;;;;7397343;19;20132;-80
2024/01/24 12:09:36;;;;;;;0.75;0.40;;;8.50;1.00;8.90;94671.00;;;;7395034;19;20132;-83
2024/01/24 12:12:13;;;;;;;1.40;0.43;;;9.10;1.00;8.80;94600.00;;;;7407685;19;20147;-85
2024/01/24 12:14:48;;;;;;;0.93;0.30;;;9.00;1.00;9.10;94566.00;;;;7399420;19;20604;-86
2024/01/24 12:17:17;;;;;;;2.28;0.60;;;8.90;1.00;8.80;94717.00;;;;7400140;19;20163;-82
2024/01/24 12:19:51;;;;;;;2.45;0.70;;;8.90;1.00;9.10;94759.00;;;;7398022;19;20473;-82
2024/01/24 12:22:20;;;;;;;2.83;0.80;;;8.90;1.00;9.70;94746.00;;;;7398893;19;20133;-79
2024/01/24 12:25:00;;;;;;;1.67;0.80;;;9.10;1.00;9.80;94609.00;;;;7398235;19;20237;-79
2024/01/24 12:27:29;;;;;;;1.63;0.90;;;9.20;99.90;8.90;94745.00;;;;7399737;19;20201;-78
2024/01/24 12:30:04;;;;;;;4.00;0.90;;;;;9.70;94787.00;;;;7400532;19;20144;-82
2024/01/24 12:32:41;;;;;;;4.50;0.88;;;9.00;99.90;9.70;94709.00;;;;7400121;19;20534;-81
2024/01/24 12:35:18;;;;;;;3.28;1.08;;;9.10;99.90;9.10;94764.00;;;;7398114;19;20145;-78
2024/01/24 12:37:56;;;;;;;4.13;1.00;;;9.20;99.90;9.10;94605.00;;;;7397842;19;20151;-83
2024/01/24 12:40:31;;;;;;;1.75;0.77;;;9.20;23.70;9.40;94683.00;;;;7398379;19;20148;-81
2024/01/24 12:43:06;;;;;;;3.38;1.15;;;9.30;1.00;10.10;94761.00;;;;7390800;19;20178;-79
2024/01/24 12:45:33;;;;;;;4.43;1.10;;;9.40;1.00;9.90;94724.00;;;;7392771;19;20613;-81
2024/01/24 12:48:11;;;;;;;5.35;1.35;;;9.50;1.00;9.50;94725.00;;;;7393121;19;20129;-81
2024/01/24 12:50:41;;;;;;;4.22;1.38;;;;;9.90;94779.00;;;;7394116;19;20140;-82